Time;durP1;ratioP1;P1;durP2;ratioP2;P2;SDS_P1;SDS_P2;PMS_P1;PMS_P2;Temp;Humidity;BMP_temperature;BMP_pressure;BME280_temperature;BME280_humidity;BME280_pressure;Samples;Min_cycle;Max_cycle;Signal;HPM_P1;HPM_P2
2021/01/15 00:02:10;;;;;;;18.37;15.00;;;;;;;;;;5073125;28;20250;-42
2021/01/15 00:04:35;;;;;;;19.88;15.30;;;;;;;;;;5073089;28;20202;-42
2021/01/15 00:07:03;;;;;;;17.17;14.82;;;;;;;;;;5071576;28;20464;-42
2021/01/15 00:09:29;;;;;;;16.40;14.00;;;;;;;;;;5072907;28;20182;-42
2021/01/15 00:11:54;;;;;;;19.27;13.60;;;;;;;;;;5071453;28;20619;-42
2021/01/15 00:14:19;;;;;;;18.35;15.98;;;;;;;;;;5072369;28;20243;-42
2021/01/15 00:16:44;;;;;;;17.00;14.18;;;;;;;;;;5072926;28;20181;-42
2021/01/15 00:19:09;;;;;;;18.10;13.95;;;;;;;;;;5072688;28;20730;-42
2021/01/15 00:21:35;;;;;;;17.97;15.00;;;;;;;;;;5072685;28;20189;-42
2021/01/15 00:24:01;;;;;;;17.50;15.00;;;;;;;;;;5070572;28;20734;-42
2021/01/15 00:26:27;;;;;;;16.30;13.63;;;;;;;;;;5073019;28;20173;-42
2021/01/15 00:28:52;;;;;;;20.00;15.67;;;;;;;;;;5072621;28;20182;-42
2021/01/15 00:31:18;;;;;;;18.17;14.70;;;;;;;;;;5072839;28;20614;-42
2021/01/15 00:33:43;;;;;;;21.80;16.43;;;;;;;;;;5072224;28;20260;-42
2021/01/15 00:36:09;;;;;;;24.37;16.57;;;;;;;;;;5073781;28;20184;-42
2021/01/15 00:38:34;;;;;;;20.23;14.60;;;;;;;;;;5071902;28;20205;-43
2021/01/15 00:41:00;;;;;;;20.57;15.77;;;;;;;;;;5072708;28;20174;-42
2021/01/15 00:43:25;;;;;;;20.27;15.17;;;;;;;;;;5072815;28;20518;-42
2021/01/15 00:45:50;;;;;;;18.55;15.38;;;;;;;;;;5073617;28;21011;-42
2021/01/15 00:48:15;;;;;;;17.15;13.98;;;;;;;;;;5072838;28;20206;-41
2021/01/15 00:50:41;;;;;;;23.00;15.53;;;;;;;;;;5072273;28;20180;-42
2021/01/15 00:53:06;;;;;;;20.85;15.27;;;;;;;;;;5072039;28;20222;-42
2021/01/15 00:55:31;;;;;;;17.27;14.00;;;;;;;;;;5073584;28;20540;-42
2021/01/15 00:57:56;;;;;;;22.85;16.05;;;;;;;;;;5072195;28;20200;-42
2021/01/15 01:00:21;;;;;;;20.00;15.63;;;;;;;;;;5072168;28;20188;-42
2021/01/15 01:02:46;;;;;;;19.40;15.43;;;;;;;;;;5071078;28;20183;-43
2021/01/15 01:05:12;;;;;;;19.25;15.38;;;;;;;;;;5071787;28;20551;-42
2021/01/15 01:07:43;;;;;;;20.73;16.37;;;;;;;;;;5073213;28;20669;-43
2021/01/15 01:10:08;;;;;;;21.30;14.80;;;;;;;;;;5070621;28;20218;-42
2021/01/15 01:12:38;;;;;;;19.07;15.07;;;;;;;;;;5071947;28;20671;-42
2021/01/15 01:15:03;;;;;;;20.30;15.43;;;;;;;;;;5072084;28;20233;-42
2021/01/15 01:17:28;;;;;;;20.70;16.83;;;;;;;;;;5072925;28;21001;-42
2021/01/15 01:19:53;;;;;;;19.73;16.10;;;;;;;;;;5071844;28;20546;-42
2021/01/15 01:22:18;;;;;;;19.60;16.17;;;;;;;;;;5072227;28;20178;-42
2021/01/15 01:24:44;;;;;;;18.83;14.73;;;;;;;;;;5071429;28;20221;-42
2021/01/15 01:27:09;;;;;;;19.30;14.70;;;;;;;;;;5073399;28;20170;-42
2021/01/15 01:29:34;;;;;;;20.97;15.33;;;;;;;;;;5071663;28;20212;-42
2021/01/15 01:31:59;;;;;;;20.80;15.05;;;;;;;;;;5071462;28;20180;-43
2021/01/15 01:34:24;;;;;;;19.33;15.57;;;;;;;;;;5071464;28;20194;-43
2021/01/15 01:36:49;;;;;;;23.40;16.15;;;;;;;;;;5071604;28;20344;-42
2021/01/15 01:39:14;;;;;;;20.40;15.70;;;;;;;;;;5074732;28;20206;-42
2021/01/15 01:41:40;;;;;;;19.15;15.50;;;;;;;;;;5071983;28;20168;-43
2021/01/15 01:44:05;;;;;;;18.17;15.50;;;;;;;;;;5070785;28;20178;-42
2021/01/15 01:46:30;;;;;;;21.83;16.40;;;;;;;;;;5071851;28;20632;-42
2021/01/15 01:48:56;;;;;;;17.97;15.10;;;;;;;;;;5072411;28;20544;-42
2021/01/15 01:51:21;;;;;;;24.30;16.23;;;;;;;;;;5071327;28;20203;-42
2021/01/15 01:53:46;;;;;;;20.20;15.10;;;;;;;;;;5071110;28;20171;-42
2021/01/15 01:56:12;;;;;;;19.87;14.57;;;;;;;;;;5071146;28;20689;-42
2021/01/15 01:58:37;;;;;;;23.13;16.73;;;;;;;;;;5072688;28;20202;-42
2021/01/15 02:01:03;;;;;;;18.47;14.03;;;;;;;;;;5070250;28;20674;-43
2021/01/15 02:03:29;;;;;;;20.00;14.53;;;;;;;;;;5071358;28;20173;-42
2021/01/15 02:05:54;;;;;;;19.00;15.33;;;;;;;;;;5068512;28;20624;-42
2021/01/15 02:08:19;;;;;;;19.00;14.87;;;;;;;;;;5066981;28;20674;-42
2021/01/15 02:10:50;;;;;;;20.70;15.83;;;;;;;;;;5070887;28;20307;-42
2021/01/15 02:13:16;;;;;;;19.37;15.33;;;;;;;;;;5069247;28;20734;-42
2021/01/15 02:15:49;;;;;;;17.63;14.10;;;;;;;;;;5070252;28;21033;-42
2021/01/15 02:18:34;;;;;;;19.63;15.50;;;;;;;;;;5069820;28;20214;-42
2021/01/15 02:21:31;;;;;;;19.30;15.07;;;;;;;;;;5059707;28;20702;-42
2021/01/15 02:24:14;;;;;;;19.00;14.30;;;;;;;;;;5070201;28;20598;-42
2021/01/15 02:26:45;;;;;;;18.87;14.07;;;;;;;;;;5073106;28;20611;-42
2021/01/15 02:29:13;;;;;;;19.90;14.90;;;;;;;;;;5070582;28;20608;-42
2021/01/15 02:31:44;;;;;;;24.10;16.67;;;;;;;;;;5070758;28;20610;-42
2021/01/15 02:34:28;;;;;;;20.43;15.60;;;;;;;;;;5070634;28;20636;-42
2021/01/15 02:36:59;;;;;;;19.07;14.30;;;;;;;;;;5063530;28;20647;-42
2021/01/15 02:39:43;;;;;;;16.93;15.13;;;;;;;;;;5070060;28;20649;-42
2021/01/15 02:42:10;;;;;;;19.23;14.67;;;;;;;;;;5069348;28;20602;-42
2021/01/15 02:44:38;;;;;;;21.47;16.80;;;;;;;;;;5069455;28;20646;-42
2021/01/15 02:47:04;;;;;;;23.03;16.97;;;;;;;;;;5067758;28;20613;-42
2021/01/15 02:49:30;;;;;;;24.43;17.07;;;;;;;;;;5071278;28;20607;-42
2021/01/15 02:51:56;;;;;;;26.47;17.20;;;;;;;;;;5069929;28;20182;-43
2021/01/15 02:54:22;;;;;;;22.10;16.00;;;;;;;;;;5069761;28;20638;-43
2021/01/15 02:56:47;;;;;;;23.17;16.73;;;;;;;;;;5070146;28;20602;-43
2021/01/15 02:59:12;;;;;;;21.30;16.60;;;;;;;;;;5070360;28;20641;-42
2021/01/15 03:01:57;;;;;;;23.88;16.50;;;;;;;;;;5069236;28;20174;-43
2021/01/15 03:04:25;;;;;;;21.10;15.73;;;;;;;;;;5069721;28;20671;-42
2021/01/15 03:06:51;;;;;;;21.40;15.90;;;;;;;;;;5069888;28;20584;-42
2021/01/15 03:09:17;;;;;;;23.57;16.50;;;;;;;;;;5070219;28;20613;-42
2021/01/15 03:11:42;;;;;;;22.80;17.07;;;;;;;;;;5069507;28;20597;-42
2021/01/15 03:14:08;;;;;;;23.90;18.27;;;;;;;;;;5063917;28;20235;-42
2021/01/15 03:16:35;;;;;;;23.00;16.20;;;;;;;;;;5067425;28;20850;-42
2021/01/15 03:19:00;;;;;;;22.07;16.90;;;;;;;;;;5072888;28;20648;-42
2021/01/15 03:21:31;;;;;;;22.40;16.80;;;;;;;;;;5069657;28;20950;-42
2021/01/15 03:24:06;;;;;;;22.10;16.30;;;;;;;;;;5068736;28;20186;-42
2021/01/15 03:26:31;;;;;;;26.30;17.80;;;;;;;;;;5071980;28;20602;-43
2021/01/15 03:28:57;;;;;;;22.27;16.70;;;;;;;;;;5074960;28;21040;-42
2021/01/15 03:31:22;;;;;;;21.47;16.27;;;;;;;;;;5074045;28;20653;-43
2021/01/15 03:33:47;;;;;;;22.50;16.37;;;;;;;;;;5073696;28;20171;-42
2021/01/15 03:36:12;;;;;;;21.83;16.50;;;;;;;;;;5073831;28;20231;-42
2021/01/15 03:38:38;;;;;;;20.45;15.35;;;;;;;;;;5073431;28;20210;-42
2021/01/15 03:41:03;;;;;;;22.80;17.38;;;;;;;;;;5064094;28;20702;-42
2021/01/15 03:43:28;;;;;;;21.27;15.63;;;;;;;;;;5073799;28;20176;-42
2021/01/15 03:45:53;;;;;;;22.23;16.10;;;;;;;;;;5073798;28;20173;-42
2021/01/15 03:48:21;;;;;;;22.63;16.57;;;;;;;;;;5073764;28;20679;-42
2021/01/15 03:50:46;;;;;;;24.00;18.00;;;;;;;;;;5074567;28;20251;-42
2021/01/15 03:53:12;;;;;;;19.33;15.40;;;;;;;;;;5073491;28;21257;-41
2021/01/15 03:55:37;;;;;;;22.23;15.90;;;;;;;;;;5074151;28;20176;-42
2021/01/15 03:58:02;;;;;;;22.05;16.15;;;;;;;;;;5073455;28;20586;-42
2021/01/15 04:00:27;;;;;;;19.52;15.95;;;;;;;;;;5071355;28;20174;-42
2021/01/15 04:02:52;;;;;;;22.97;17.03;;;;;;;;;;5071898;28;20181;-42
2021/01/15 04:05:18;;;;;;;23.27;16.60;;;;;;;;;;5073423;28;20172;-42
2021/01/15 04:07:43;;;;;;;22.63;16.87;;;;;;;;;;5072868;28;20180;-42
2021/01/15 04:10:09;;;;;;;19.73;17.17;;;;;;;;;;5073696;28;20186;-42
2021/01/15 04:12:34;;;;;;;23.93;17.47;;;;;;;;;;5073702;28;20665;-42
2021/01/15 04:15:00;;;;;;;25.83;18.43;;;;;;;;;;5072985;28;20690;-41
2021/01/15 04:17:25;;;;;;;21.88;15.82;;;;;;;;;;5072961;28;20178;-41
2021/01/15 04:19:50;;;;;;;22.73;16.35;;;;;;;;;;5073033;28;20198;-42
2021/01/15 04:22:15;;;;;;;19.90;16.10;;;;;;;;;;5075355;28;20219;-41
2021/01/15 04:24:40;;;;;;;20.77;15.20;;;;;;;;;;5073340;28;20533;-41
2021/01/15 04:27:06;;;;;;;24.50;17.60;;;;;;;;;;5072713;28;20174;-40
2021/01/15 04:29:31;;;;;;;20.70;15.50;;;;;;;;;;5073209;28;20303;-41
2021/01/15 04:31:56;;;;;;;23.73;17.40;;;;;;;;;;5072187;28;20180;-42
2021/01/15 04:34:21;;;;;;;23.13;17.33;;;;;;;;;;5072018;28;20184;-41
2021/01/15 04:36:46;;;;;;;23.35;16.70;;;;;;;;;;5072481;28;20191;-42
2021/01/15 04:39:12;;;;;;;21.63;16.17;;;;;;;;;;5072177;28;20663;-42
2021/01/15 04:41:37;;;;;;;22.10;16.53;;;;;;;;;;5072443;28;20269;-42
2021/01/15 04:44:03;;;;;;;25.05;18.02;;;;;;;;;;5080244;28;20590;-41
2021/01/15 04:46:28;;;;;;;23.27;17.43;;;;;;;;;;5070871;28;20167;-42
2021/01/15 04:48:54;;;;;;;25.60;16.53;;;;;;;;;;5070020;28;20939;-42
2021/01/15 04:51:20;;;;;;;21.00;16.10;;;;;;;;;;5080457;28;20669;-42
2021/01/15 04:53:54;;;;;;;23.20;16.30;;;;;;;;;;5071384;28;21148;-42
2021/01/15 04:56:23;;;;;;;21.23;17.00;;;;;;;;;;5072058;28;20644;-42
2021/01/15 04:58:49;;;;;;;25.73;17.07;;;;;;;;;;5071838;28;20643;-42
2021/01/15 05:01:16;;;;;;;21.27;16.73;;;;;;;;;;5072122;28;20598;-41
2021/01/15 05:03:42;;;;;;;20.27;16.43;;;;;;;;;;5071633;28;20665;-42
2021/01/15 05:06:07;;;;;;;20.43;16.03;;;;;;;;;;5071716;28;20595;-42
2021/01/15 05:08:35;;;;;;;19.57;16.13;;;;;;;;;;5071496;28;20626;-42
2021/01/15 05:11:02;;;;;;;24.77;17.47;;;;;;;;;;5072209;28;20167;-42
2021/01/15 05:13:31;;;;;;;24.77;16.70;;;;;;;;;;5071368;28;20659;-42
2021/01/15 05:15:56;;;;;;;20.60;15.90;;;;;;;;;;5071674;28;20597;-41
2021/01/15 05:18:23;;;;;;;23.63;16.53;;;;;;;;;;5071092;28;21276;-42
2021/01/15 05:20:48;;;;;;;25.67;16.50;;;;;;;;;;5072504;28;20176;-42
2021/01/15 05:23:15;;;;;;;18.70;15.23;;;;;;;;;;5070434;28;20586;-42
2021/01/15 05:25:46;;;;;;;20.23;16.30;;;;;;;;;;5071516;28;20192;-42
2021/01/15 05:28:14;;;;;;;20.80;14.90;;;;;;;;;;5071452;28;20734;-42
2021/01/15 05:30:41;;;;;;;21.40;15.87;;;;;;;;;;5071646;28;20595;-41
2021/01/15 05:33:10;;;;;;;22.00;15.53;;;;;;;;;;5069710;28;20956;-41
2021/01/15 05:35:46;;;;;;;21.47;16.90;;;;;;;;;;5068602;28;20696;-42
2021/01/15 05:38:12;;;;;;;20.80;15.97;;;;;;;;;;5067548;28;21511;-41
2021/01/15 05:40:45;;;;;;;20.30;16.00;;;;;;;;;;5068579;28;21182;-42
2021/01/15 05:43:20;;;;;;;20.80;16.37;;;;;;;;;;5061451;28;20597;-42
2021/01/15 05:46:04;;;;;;;19.63;14.23;;;;;;;;;;5077616;28;20602;-42
2021/01/15 05:48:29;;;;;;;17.90;14.90;;;;;;;;;;5065890;28;20615;-42
2021/01/15 05:50:54;;;;;;;21.42;15.80;;;;;;;;;;5068424;28;20606;-42
2021/01/15 05:53:19;;;;;;;20.30;15.27;;;;;;;;;;5069121;28;20191;-42
2021/01/15 05:55:57;;;;;;;17.40;14.25;;;;;;;;;;5067218;28;20181;-42
2021/01/15 05:58:22;;;;;;;20.43;15.70;;;;;;;;;;5054874;28;20694;-41
2021/01/15 06:00:51;;;;;;;17.55;14.23;;;;;;;;;;5067422;28;20627;-42
2021/01/15 06:03:16;;;;;;;17.83;13.43;;;;;;;;;;5067155;28;20230;-41
2021/01/15 06:05:47;;;;;;;18.67;13.90;;;;;;;;;;5067294;28;20989;-42
2021/01/15 06:08:13;;;;;;;15.33;12.73;;;;;;;;;;5061162;28;20226;-42
2021/01/15 06:10:43;;;;;;;14.50;12.93;;;;;;;;;;5063756;28;20594;-41
2021/01/15 06:13:08;;;;;;;14.20;11.40;;;;;;;;;;5066704;28;20673;-42
2021/01/15 06:15:48;;;;;;;16.13;14.00;;;;;;;;;;5067002;28;20595;-41
2021/01/15 06:18:17;;;;;;;15.57;12.23;;;;;;;;;;5067256;28;20213;-41
2021/01/15 06:20:43;;;;;;;17.63;12.90;;;;;;;;;;5062477;28;20593;-41
2021/01/15 06:23:12;;;;;;;14.57;12.23;;;;;;;;;;5065125;28;20661;-41
2021/01/15 06:25:53;;;;;;;14.23;12.20;;;;;;;;;;5068880;28;20208;-42
2021/01/15 06:28:19;;;;;;;13.70;11.33;;;;;;;;;;5064992;28;20691;-41
2021/01/15 06:30:57;;;;;;;14.40;12.40;;;;;;;;;;5067761;28;21048;-42
2021/01/15 06:33:22;;;;;;;14.67;12.40;;;;;;;;;;5066067;28;20728;-42
2021/01/15 06:35:47;;;;;;;14.27;12.07;;;;;;;;;;5057654;28;20597;-42
2021/01/15 06:38:12;;;;;;;14.13;11.93;;;;;;;;;;5063258;28;20204;-42
2021/01/15 06:40:38;;;;;;;18.30;13.00;;;;;;;;;;5067131;28;20189;-42
2021/01/15 06:43:07;;;;;;;15.33;12.10;;;;;;;;;;5068663;28;20183;-41
2021/01/15 06:45:46;;;;;;;16.00;12.50;;;;;;;;;;5064524;28;20619;-41
2021/01/15 06:48:13;;;;;;;14.40;12.17;;;;;;;;;;5063127;28;20652;-42
2021/01/15 06:50:38;;;;;;;15.23;12.87;;;;;;;;;;5067725;28;20613;-41
2021/01/15 06:53:13;;;;;;;15.40;11.83;;;;;;;;;;5065775;28;20603;-41
2021/01/15 06:55:42;;;;;;;18.00;13.30;;;;;;;;;;5063386;28;20183;-41
2021/01/15 06:58:16;;;;;;;15.57;12.93;;;;;;;;;;5059777;28;20753;-41
2021/01/15 07:00:42;;;;;;;17.80;14.30;;;;;;;;;;5076961;28;20733;-41
2021/01/15 07:03:40;;;;;;;17.70;14.43;;;;;;;;;;5068148;28;21201;-41
2021/01/15 07:06:14;;;;;;;18.73;13.43;;;;;;;;;;5070838;28;21165;-41
2021/01/15 07:08:40;;;;;;;14.73;12.80;;;;;;;;;;5065983;28;20600;-41
2021/01/15 07:11:05;;;;;;;17.47;12.30;;;;;;;;;;5067668;28;21204;-42
2021/01/15 07:13:31;;;;;;;16.67;14.03;;;;;;;;;;5068561;28;20287;-42
2021/01/15 07:15:58;;;;;;;16.43;13.67;;;;;;;;;;5067645;28;20165;-42
2021/01/15 07:18:23;;;;;;;16.40;12.37;;;;;;;;;;5066540;28;20635;-42
2021/01/15 07:20:49;;;;;;;15.32;13.35;;;;;;;;;;5069308;28;20590;-42
2021/01/15 07:23:15;;;;;;;15.37;12.27;;;;;;;;;;5069367;28;20272;-42
2021/01/15 07:25:46;;;;;;;14.83;12.37;;;;;;;;;;5064418;28;21881;-42
2021/01/15 07:28:12;;;;;;;17.50;12.83;;;;;;;;;;5067002;28;20613;-42
2021/01/15 07:30:37;;;;;;;16.50;12.30;;;;;;;;;;5069362;28;20705;-42
2021/01/15 07:33:05;;;;;;;17.33;13.97;;;;;;;;;;5064969;28;20219;-42
2021/01/15 07:35:35;;;;;;;15.10;12.53;;;;;;;;;;5066766;28;20181;-42
2021/01/15 07:38:07;;;;;;;16.43;13.97;;;;;;;;;;5062103;28;20653;-42
2021/01/15 07:40:35;;;;;;;15.23;12.63;;;;;;;;;;5067233;28;20603;-42
2021/01/15 07:43:01;;;;;;;16.83;13.47;;;;;;;;;;5069178;28;20604;-42
2021/01/15 07:45:26;;;;;;;14.70;12.53;;;;;;;;;;5069577;28;20592;-42
2021/01/15 07:47:52;;;;;;;19.40;14.87;;;;;;;;;;5069133;28;20182;-42
2021/01/15 07:50:29;;;;;;;17.10;13.57;;;;;;;;;;5065401;28;21938;-42
2021/01/15 07:53:03;;;;;;;16.93;12.90;;;;;;;;;;5063082;28;20169;-42
2021/01/15 07:55:41;;;;;;;16.47;12.97;;;;;;;;;;5068092;28;20599;-42
2021/01/15 07:58:06;;;;;;;18.87;14.27;;;;;;;;;;5065135;28;20654;-42
2021/01/15 08:00:33;;;;;;;17.70;13.90;;;;;;;;;;5070576;28;20604;-42
2021/01/15 08:02:59;;;;;;;16.67;13.00;;;;;;;;;;5062692;28;20187;-41
2021/01/15 08:05:24;;;;;;;16.20;13.83;;;;;;;;;;5059516;28;20596;-42
2021/01/15 08:07:50;;;;;;;20.10;14.17;;;;;;;;;;5065828;28;20608;-42
2021/01/15 08:10:24;;;;;;;17.73;13.10;;;;;;;;;;5064697;28;20203;-42
2021/01/15 08:12:49;;;;;;;18.27;12.83;;;;;;;;;;5070866;28;20173;-42
2021/01/15 08:15:31;;;;;;;20.27;13.35;;;;;;;;;;5071486;28;20702;-42
2021/01/15 08:18:00;;;;;;;17.00;13.17;;;;;;;;;;5070960;28;20765;-42
2021/01/15 08:20:26;;;;;;;18.10;13.70;;;;;;;;;;5072674;28;21158;-42
2021/01/15 08:22:51;;;;;;;15.90;13.87;;;;;;;;;;5071713;28;20671;-42
2021/01/15 08:25:22;;;;;;;16.50;13.03;;;;;;;;;;5071254;28;20204;-42
2021/01/15 08:27:48;;;;;;;18.20;13.03;;;;;;;;;;5063614;28;20267;-42
2021/01/15 08:30:13;;;;;;;15.00;11.80;;;;;;;;;;5070780;28;21207;-42
2021/01/15 08:32:39;;;;;;;16.70;14.13;;;;;;;;;;5072520;28;20181;-42
2021/01/15 08:35:04;;;;;;;16.03;13.07;;;;;;;;;;5069246;28;20162;-42
2021/01/15 08:37:30;;;;;;;15.70;13.33;;;;;;;;;;5070781;28;20608;-41
2021/01/15 08:39:55;;;;;;;15.50;12.77;;;;;;;;;;5070130;28;20676;-42
2021/01/15 08:42:20;;;;;;;16.37;12.60;;;;;;;;;;5069039;28;20178;-42
2021/01/15 08:44:49;;;;;;;18.23;14.17;;;;;;;;;;5074336;28;20224;-42
2021/01/15 08:47:15;;;;;;;20.70;13.97;;;;;;;;;;5070270;28;20171;-42
2021/01/15 08:49:50;;;;;;;16.73;13.47;;;;;;;;;;5070102;28;20669;-42
2021/01/15 08:52:17;;;;;;;16.90;13.77;;;;;;;;;;5071677;28;20626;-42
2021/01/15 08:54:43;;;;;;;14.27;11.73;;;;;;;;;;5071803;28;20688;-42
2021/01/15 08:57:08;;;;;;;13.10;11.70;;;;;;;;;;5071681;28;20601;-42
2021/01/15 08:59:34;;;;;;;14.40;12.03;;;;;;;;;;5069689;28;21248;-42
2021/01/15 09:02:00;;;;;;;13.37;11.53;;;;;;;;;;5074084;28;20201;-42
2021/01/15 09:04:33;;;;;;;13.87;12.13;;;;;;;;;;5071582;28;20171;-42
2021/01/15 09:07:00;;;;;;;11.60;10.43;;;;;;;;;;5071672;28;20623;-42
2021/01/15 09:09:27;;;;;;;14.93;11.70;;;;;;;;;;5069640;28;20579;-42
2021/01/15 09:11:53;;;;;;;11.80;10.70;;;;;;;;;;5071611;28;20571;-42
2021/01/15 09:14:22;;;;;;;11.70;10.47;;;;;;;;;;5069210;28;20666;-42
2021/01/15 09:16:48;;;;;;;13.80;11.30;;;;;;;;;;5071181;28;20174;-42
2021/01/15 09:19:14;;;;;;;13.83;12.37;;;;;;;;;;5068952;28;20658;-42
2021/01/15 09:21:49;;;;;;;12.90;11.50;;;;;;;;;;5070962;28;20222;-42
2021/01/15 09:24:15;;;;;;;13.63;11.93;;;;;;;;;;5070637;28;20295;-42
2021/01/15 09:26:41;;;;;;;15.47;12.30;;;;;;;;;;5071293;28;20659;-42
2021/01/15 09:29:06;;;;;;;13.23;11.83;;;;;;;;;;5069122;28;20987;-42
2021/01/15 09:31:31;;;;;;;13.70;11.93;;;;;;;;;;5071268;28;20628;-42
2021/01/15 09:33:56;;;;;;;13.13;11.73;;;;;;;;;;5071233;28;20184;-42
2021/01/15 09:36:23;;;;;;;14.27;12.23;;;;;;;;;;5071141;28;20178;-42
2021/01/15 09:38:49;;;;;;;14.30;12.13;;;;;;;;;;5069079;28;20196;-42
2021/01/15 09:41:14;;;;;;;16.27;11.80;;;;;;;;;;5070894;28;20596;-42
2021/01/15 09:43:40;;;;;;;18.87;12.17;;;;;;;;;;5071146;28;20187;-42
2021/01/15 09:46:05;;;;;;;16.40;12.30;;;;;;;;;;5070941;28;20191;-42
2021/01/15 09:48:30;;;;;;;13.27;11.87;;;;;;;;;;5068842;28;20576;-42
2021/01/15 09:50:56;;;;;;;13.55;12.20;;;;;;;;;;5070849;28;20176;-42
2021/01/15 09:53:21;;;;;;;13.30;10.93;;;;;;;;;;5070485;28;20300;-42
2021/01/15 09:55:46;;;;;;;15.73;11.88;;;;;;;;;;5070375;28;20173;-42
2021/01/15 09:58:11;;;;;;;15.63;13.40;;;;;;;;;;5068534;28;20286;-42
2021/01/15 10:00:38;;;;;;;15.43;11.68;;;;;;;;;;5070703;28;20232;-42
2021/01/15 10:03:03;;;;;;;15.50;11.80;;;;;;;;;;5070470;28;20211;-42
2021/01/15 10:05:29;;;;;;;13.63;11.07;;;;;;;;;;5070437;28;20986;-42
2021/01/15 10:07:54;;;;;;;14.37;11.87;;;;;;;;;;5070158;28;20566;-42
2021/01/15 10:10:19;;;;;;;14.50;11.90;;;;;;;;;;5068498;28;20439;-42
2021/01/15 10:12:45;;;;;;;14.65;11.73;;;;;;;;;;5069811;28;20337;-42
2021/01/15 10:15:10;;;;;;;14.33;11.37;;;;;;;;;;5070296;28;20167;-42
2021/01/15 10:17:41;;;;;;;15.13;12.50;;;;;;;;;;5070352;28;20582;-42
2021/01/15 10:20:08;;;;;;;16.00;12.40;;;;;;;;;;5067940;28;20703;-42
2021/01/15 10:22:33;;;;;;;16.43;12.03;;;;;;;;;;5069704;28;20611;-42
2021/01/15 10:24:58;;;;;;;14.52;10.95;;;;;;;;;;5070137;28;20257;-42
2021/01/15 10:27:23;;;;;;;18.02;12.85;;;;;;;;;;5068924;28;20402;-42
2021/01/15 10:29:48;;;;;;;14.98;11.50;;;;;;;;;;5065628;28;20177;-42
2021/01/15 10:32:13;;;;;;;15.35;11.68;;;;;;;;;;5066360;28;20453;-42
2021/01/15 10:34:38;;;;;;;13.00;11.60;;;;;;;;;;5069246;28;20175;-42
2021/01/15 10:37:03;;;;;;;16.77;12.82;;;;;;;;;;5069493;28;20184;-42
2021/01/15 10:39:29;;;;;;;14.70;11.67;;;;;;;;;;5067314;28;20271;-42
2021/01/15 10:41:55;;;;;;;12.77;11.40;;;;;;;;;;5067748;28;20169;-42
2021/01/15 10:44:20;;;;;;;10.47;8.83;;;;;;;;;;5069334;28;20698;-41
2021/01/15 10:46:47;;;;;;;13.20;10.10;;;;;;;;;;5069304;28;20571;-42
2021/01/15 10:49:16;;;;;;;9.77;8.80;;;;;;;;;;5067321;28;20574;-42
2021/01/15 10:51:45;;;;;;;11.60;10.30;;;;;;;;;;5069045;28;21095;-42
2021/01/15 10:54:10;;;;;;;8.63;7.73;;;;;;;;;;5069257;28;20577;-42
2021/01/15 10:56:36;;;;;;;8.37;6.53;;;;;;;;;;5069318;28;20562;-41
2021/01/15 10:59:02;;;;;;;10.40;8.27;;;;;;;;;;5069060;28;20690;-42
2021/01/15 11:01:34;;;;;;;7.97;7.17;;;;;;;;;;5068858;28;20174;-42
2021/01/15 11:03:59;;;;;;;7.83;7.07;;;;;;;;;;5069551;28;21190;-42
2021/01/15 11:06:24;;;;;;;8.07;7.30;;;;;;;;;;5069333;28;20621;-42
2021/01/15 11:08:49;;;;;;;10.20;7.65;;;;;;;;;;5069411;28;20176;-42
2021/01/15 11:11:14;;;;;;;9.85;8.73;;;;;;;;;;5069437;28;20168;-42
2021/01/15 11:13:40;;;;;;;8.90;8.00;;;;;;;;;;5069299;28;20224;-42
2021/01/15 11:16:09;;;;;;;9.65;7.90;;;;;;;;;;5069376;28;20190;-42
2021/01/15 11:18:34;;;;;;;9.10;8.20;;;;;;;;;;5067280;28;20212;-42
2021/01/15 11:21:00;;;;;;;11.65;9.48;;;;;;;;;;5069300;28;20586;-42
2021/01/15 11:23:25;;;;;;;11.43;10.23;;;;;;;;;;5069186;28;20180;-42
2021/01/15 11:25:50;;;;;;;13.23;9.43;;;;;;;;;;5069318;28;20610;-43
2021/01/15 11:28:16;;;;;;;10.00;9.00;;;;;;;;;;5069466;28;20181;-45
2021/01/15 11:30:41;;;;;;;13.82;10.98;;;;;;;;;;5067714;28;20181;-42
2021/01/15 11:33:06;;;;;;;12.00;10.70;;;;;;;;;;5069700;28;20692;-42
2021/01/15 11:35:31;;;;;;;13.40;11.40;;;;;;;;;;5069589;28;20170;-42
2021/01/15 11:37:58;;;;;;;12.05;9.52;;;;;;;;;;5069620;28;20695;-46
2021/01/15 11:40:23;;;;;;;13.70;10.17;;;;;;;;;;5067527;28;20635;-42
2021/01/15 11:42:53;;;;;;;11.67;10.43;;;;;;;;;;5069519;28;20593;-42
2021/01/15 11:45:18;;;;;;;11.97;10.10;;;;;;;;;;5069585;28;20223;-42
2021/01/15 11:47:43;;;;;;;11.30;9.43;;;;;;;;;;5072416;28;20570;-42
2021/01/15 11:50:09;;;;;;;14.40;10.63;;;;;;;;;;5071293;28;20681;-42
2021/01/15 11:52:34;;;;;;;15.33;10.20;;;;;;;;;;5073317;28;20188;-42
2021/01/15 11:54:59;;;;;;;14.02;10.63;;;;;;;;;;5073499;28;20176;-42
2021/01/15 11:57:24;;;;;;;13.70;11.00;;;;;;;;;;5073118;28;20258;-42
2021/01/15 11:59:50;;;;;;;13.38;10.45;;;;;;;;;;5071483;28;20624;-42
2021/01/15 12:02:15;;;;;;;15.25;11.20;;;;;;;;;;5072753;28;20745;-42
2021/01/15 12:04:40;;;;;;;14.60;11.00;;;;;;;;;;5073118;28;20166;-42
2021/01/15 12:07:05;;;;;;;15.52;11.32;;;;;;;;;;5072999;28;20172;-42
2021/01/15 12:09:30;;;;;;;14.38;10.40;;;;;;;;;;5071148;28;20579;-42
2021/01/15 12:11:56;;;;;;;10.30;9.23;;;;;;;;;;5072973;28;20169;-42
2021/01/15 12:14:22;;;;;;;12.80;10.27;;;;;;;;;;5085995;28;20231;-42
2021/01/15 12:16:47;;;;;;;12.53;10.17;;;;;;;;;;5093248;28;20666;-42
2021/01/15 12:19:12;;;;;;;14.00;11.70;;;;;;;;;;5072835;28;20581;-42
2021/01/15 12:21:37;;;;;;;11.17;9.60;;;;;;;;;;5093096;28;20168;-42
2021/01/15 12:24:03;;;;;;;13.07;10.40;;;;;;;;;;5092989;28;20411;-42
2021/01/15 12:26:29;;;;;;;11.13;9.93;;;;;;;;;;5076617;28;20212;-42
2021/01/15 12:28:54;;;;;;;12.97;10.07;;;;;;;;;;5069198;28;20655;-42
2021/01/15 12:31:19;;;;;;;13.38;11.38;;;;;;;;;;5070328;28;20679;-42
2021/01/15 12:33:44;;;;;;;14.30;11.30;;;;;;;;;;5071900;28;20201;-42
2021/01/15 12:36:11;;;;;;;13.70;11.00;;;;;;;;;;5071391;28;20712;-41
2021/01/15 12:38:36;;;;;;;16.10;11.27;;;;;;;;;;5070952;28;20252;-42
2021/01/15 12:41:01;;;;;;;15.35;11.60;;;;;;;;;;5069857;28;21070;-42
2021/01/15 12:43:27;;;;;;;14.63;10.98;;;;;;;;;;5071543;28;20548;-41
2021/01/15 12:45:52;;;;;;;12.85;11.02;;;;;;;;;;5071441;28;20230;-42
2021/01/15 12:48:17;;;;;;;12.10;10.88;;;;;;;;;;5071145;28;20202;-42
2021/01/15 12:50:43;;;;;;;13.40;11.37;;;;;;;;;;5068997;28;20540;-42
2021/01/15 12:53:08;;;;;;;12.50;10.50;;;;;;;;;;5072131;28;20190;-42
2021/01/15 12:55:33;;;;;;;12.65;9.80;;;;;;;;;;5071879;28;20582;-42
2021/01/15 12:57:59;;;;;;;16.38;12.30;;;;;;;;;;5052951;28;20183;-42
2021/01/15 13:00:25;;;;;;;15.13;10.70;;;;;;;;;;5069816;28;20579;-41
2021/01/15 13:02:50;;;;;;;14.40;11.67;;;;;;;;;;5071877;28;20622;-42
2021/01/15 13:05:16;;;;;;;14.07;10.77;;;;;;;;;;5071640;28;20581;-42
2021/01/15 13:07:41;;;;;;;12.83;10.70;;;;;;;;;;5071653;28;20501;-42
2021/01/15 13:10:07;;;;;;;11.37;10.03;;;;;;;;;;5067554;28;20238;-42
2021/01/15 13:12:32;;;;;;;12.47;10.60;;;;;;;;;;5071444;28;20176;-42
2021/01/15 13:14:57;;;;;;;12.47;10.90;;;;;;;;;;5071360;28;20236;-41
2021/01/15 13:17:22;;;;;;;11.07;9.93;;;;;;;;;;5071224;28;20234;-42
2021/01/15 13:19:47;;;;;;;15.30;10.30;;;;;;;;;;5069510;28;20275;-42
2021/01/15 13:22:15;;;;;;;13.83;11.87;;;;;;;;;;5067995;28;20180;-42
2021/01/15 13:24:41;;;;;;;13.60;10.57;;;;;;;;;;5069795;28;20191;-42
2021/01/15 13:27:06;;;;;;;15.80;12.48;;;;;;;;;;5071661;28;20559;-42
2021/01/15 13:29:31;;;;;;;11.45;10.02;;;;;;;;;;5069186;28;20252;-42
2021/01/15 13:31:56;;;;;;;12.73;10.70;;;;;;;;;;5070008;28;20177;-42
2021/01/15 13:34:22;;;;;;;11.50;9.70;;;;;;;;;;5071077;28;20701;-43
2021/01/15 13:36:47;;;;;;;14.00;10.47;;;;;;;;;;5071447;28;20177;-42
2021/01/15 13:39:12;;;;;;;10.03;8.83;;;;;;;;;;5069443;28;20418;-42
2021/01/15 13:41:37;;;;;;;10.55;8.85;;;;;;;;;;5069385;28;20204;-42
2021/01/15 13:44:03;;;;;;;12.80;9.83;;;;;;;;;;5070995;28;20183;-42
2021/01/15 13:46:28;;;;;;;11.73;9.53;;;;;;;;;;5071194;28;20169;-43
2021/01/15 13:48:54;;;;;;;11.88;9.20;;;;;;;;;;5071245;28;20174;-42
2021/01/15 13:51:19;;;;;;;11.17;8.57;;;;;;;;;;5069268;28;20172;-43
2021/01/15 13:53:44;;;;;;;11.20;8.87;;;;;;;;;;5070967;28;20254;-42
2021/01/15 13:56:10;;;;;;;9.60;8.00;;;;;;;;;;5071097;28;20199;-43
2021/01/15 13:58:37;;;;;;;8.40;7.50;;;;;;;;;;5070858;28;20205;-42
2021/01/15 14:01:02;;;;;;;9.17;6.90;;;;;;;;;;5068754;28;20268;-42
2021/01/15 14:03:27;;;;;;;10.87;8.30;;;;;;;;;;5070806;28;21171;-43
2021/01/15 14:05:52;;;;;;;8.23;7.40;;;;;;;;;;5070459;28;20171;-43
2021/01/15 14:08:18;;;;;;;9.17;7.87;;;;;;;;;;5070890;28;20827;-43
2021/01/15 14:10:43;;;;;;;9.17;6.90;;;;;;;;;;5067445;28;20723;-43
2021/01/15 14:13:08;;;;;;;11.17;7.00;;;;;;;;;;5070758;28;20280;-43
2021/01/15 14:15:34;;;;;;;9.13;7.77;;;;;;;;;;5068556;28;20175;-43
2021/01/15 14:17:59;;;;;;;10.07;6.93;;;;;;;;;;5070312;28;20194;-43